Time;durP1;ratioP1;P1;durP2;ratioP2;P2;SDS_P1;SDS_P2;PMS_P1;PMS_P2;Temp;Humidity;BMP_temperature;BMP_pressure;BME280_temperature;BME280_humidity;BME280_pressure;Samples;Min_cycle;Max_cycle;Signal;HPM_P1;HPM_P2
2022/07/23 07:59:18;;;;;;;6.55;5.38;;;;;;;18.82;67.89;101802.16;5321954;27;20351;-76
2022/07/23 08:01:49;;;;;;;8.75;6.25;;;;;;;18.89;67.90;101808.97;5322600;28;20390;-75
2022/07/23 08:04:20;;;;;;;7.97;5.43;;;;;;;18.88;67.89;101807.31;5321543;28;20082;-73
2022/07/23 08:06:52;;;;;;;7.53;6.40;;;;;;;18.93;68.19;101809.16;5318852;28;20433;-74
2022/07/23 08:09:23;;;;;;;7.15;5.10;;;;;;;19.03;68.46;101811.69;5296797;28;20105;-75
2022/07/23 08:11:54;;;;;;;6.10;4.88;;;;;;;19.11;69.33;101810.88;5314940;28;20477;-73
2022/07/23 08:14:26;;;;;;;5.82;4.78;;;;;;;18.89;64.93;101810.94;5301870;28;20024;-73
2022/07/23 08:16:57;;;;;;;6.38;5.80;;;;;;;18.97;67.28;101815.81;5322222;28;20023;-77
2022/07/23 08:19:28;;;;;;;5.82;4.57;;;;;;;19.10;67.01;101817.69;5299063;28;20551;-75
2022/07/23 08:21:59;;;;;;;125.35;113.78;;;;;;;19.05;65.24;101815.00;5301603;28;20036;-75
2022/07/23 08:24:31;;;;;;;7.47;6.70;;;;;;;19.06;64.95;101819.47;5299540;28;20024;-75
2022/07/23 08:27:02;;;;;;;6.97;5.93;;;;;;;19.07;65.62;101826.75;5279070;28;20337;-74
2022/07/23 08:29:34;;;;;;;6.80;5.53;;;;;;;19.11;65.36;101833.38;5279712;28;20055;-73
2022/07/23 08:32:05;;;;;;;6.05;5.45;;;;;;;19.15;64.45;101832.72;5287201;28;20024;-76
2022/07/23 08:34:36;;;;;;;6.65;6.05;;;;;;;19.26;64.77;101834.94;5279630;28;20075;-75
2022/07/23 08:37:08;;;;;;;9.88;5.30;;;;;;;19.39;64.25;101833.16;5279004;28;20083;-74
2022/07/23 08:39:39;;;;;;;7.40;4.30;;;;;;;19.42;64.27;101835.31;5278729;28;20045;-72
2022/07/23 08:42:12;;;;;;;6.95;4.45;;;;;;;19.40;62.62;101846.06;5284042;28;20031;-74
2022/07/23 08:44:45;;;;;;;7.18;4.95;;;;;;;19.62;62.97;101841.50;5296599;28;20040;-75
2022/07/23 08:47:17;;;;;;;9.35;4.88;;;;;;;19.61;62.28;101840.69;5299459;28;20025;-75
2022/07/23 08:49:48;;;;;;;7.38;4.75;;;;;;;19.68;62.35;101834.59;5300550;28;20530;-77
2022/07/23 08:52:20;;;;;;;5.65;5.00;;;;;;;19.65;63.33;101838.84;5283246;28;20099;-76
2022/07/23 08:54:52;;;;;;;9.55;8.05;;;;;;;19.70;63.52;101837.91;5278605;28;20035;-72
2022/07/23 08:57:24;;;;;;;6.30;5.28;;;;;;;19.80;63.00;101836.78;5305133;28;20044;-72
2022/07/23 08:59:56;;;;;;;5.57;4.90;;;;;;;19.91;63.36;101841.75;5308317;28;20051;-75
2022/07/23 09:02:27;;;;;;;7.38;4.30;;;;;;;19.97;62.95;101848.06;5299531;28;20021;-72
2022/07/23 09:04:58;;;;;;;9.70;4.47;;;;;;;19.95;63.14;101839.13;5317676;28;20028;-72
2022/07/23 09:07:30;;;;;;;6.97;4.70;;;;;;;19.87;61.71;101834.31;5341717;28;20016;-73
2022/07/23 09:10:10;;;;;;;6.82;5.05;;;;;;;20.03;61.99;101835.47;5320693;28;20027;-72
2022/07/23 09:12:41;;;;;;;5.70;4.30;;;;;;;19.86;60.63;101836.28;5306781;28;20383;-74
2022/07/23 09:15:12;;;;;;;5.30;4.40;;;;;;;20.05;60.30;101833.16;5306392;28;20024;-74
2022/07/23 09:17:44;;;;;;;6.32;5.70;;;;;;;20.01;62.68;101831.31;5285591;28;20029;-75
2022/07/23 09:20:16;;;;;;;5.18;4.68;;;;;;;20.16;61.96;101817.56;5285647;28;20112;-76
2022/07/23 09:22:48;;;;;;;6.25;4.97;;;;;;;20.06;62.67;101811.47;5285114;28;20086;-76
2022/07/23 09:25:20;;;;;;;27.70;25.25;;;;;;;20.33;62.59;101816.75;5285617;28;20025;-77
2022/07/23 09:27:58;;;;;;;12.10;10.88;;;;;;;20.58;62.56;101814.25;5285573;28;20368;-75
2022/07/23 09:30:31;;;;;;;8.88;4.88;;;;;;;20.64;61.54;101821.38;5288018;28;20032;-77
2022/07/23 09:33:15;;;;;;;4.63;3.92;;;;;;;20.71;61.44;101816.06;5291060;28;20024;-77
2022/07/23 09:35:54;;;;;;;5.72;3.97;;;;;;;21.03;60.56;101819.44;5305753;28;20054;-77
2022/07/23 09:38:25;;;;;;;6.68;3.55;;;;;;;21.10;59.20;101822.56;5283940;28;20037;-76
2022/07/23 09:41:07;;;;;;;4.90;4.50;;;;;;;21.00;59.27;101831.41;5285252;28;20048;-75
2022/07/23 09:43:39;;;;;;;8.32;4.85;;;;;;;20.74;59.29;101826.66;5286297;28;20013;-75
2022/07/23 09:46:21;;;;;;;5.13;4.57;;;;;;;20.89;59.71;101835.72;5306460;28;20027;-78
2022/07/23 09:48:56;;;;;;;7.80;6.38;;;;;;;20.96;59.75;101833.22;5285095;28;20094;-74
2022/07/23 09:54:02;;;;;;;8.00;7.22;;;;;;;21.03;59.27;101827.91;5295523;28;20166;-76
2022/07/23 09:56:35;;;;;;;8.32;5.65;;;;;;;21.21;59.20;101835.13;5284295;28;20135;-76
2022/07/23 09:59:11;;;;;;;7.65;3.60;;;;;;;21.37;58.13;101829.75;5284317;28;20074;-73
2022/07/23 10:01:43;;;;;;;8.48;7.57;;;;;;;21.31;56.82;101833.91;5300425;28;20057;-74
2022/07/23 10:04:15;;;;;;;6.00;4.00;;;;;;;21.25;56.35;101836.09;5304793;28;20024;-75
2022/07/23 10:06:51;;;;;;;5.53;4.07;;;;;;;21.23;58.09;101827.16;5300721;28;20024;-75
2022/07/23 10:09:27;;;;;;;5.03;4.18;;;;;;;21.19;58.40;101831.84;5288491;28;20134;-71
2022/07/23 10:14:40;;;;;;;6.45;4.28;;;;;;;21.28;58.34;101824.13;5297941;28;20468;-75
2022/07/23 10:17:11;;;;;;;5.68;5.05;;;;;;;21.33;56.43;101830.78;5283801;28;20024;-76
2022/07/23 10:19:44;;;;;;;5.75;4.10;;;;;;;21.22;57.16;101833.97;5300075;28;20746;-75
2022/07/23 10:22:22;;;;;;;6.57;4.28;;;;;;;21.22;58.13;101831.16;5299576;28;20032;-75
2022/07/23 10:24:53;;;;;;;3.40;3.10;;;;;;;21.35;57.40;101825.63;5303653;28;20028;-76
2022/07/23 10:27:43;;;;;;;5.88;4.72;;;;;;;21.52;56.96;101828.34;5327500;28;20051;-77
2022/07/23 10:30:44;;;;;;;5.15;3.83;;;;;;;21.57;56.78;101841.44;5310127;28;20349;-77
2022/07/23 10:33:54;;;;;;;12.10;9.15;;;;;;;21.65;56.30;101827.31;5297732;28;20025;-80
2022/07/23 10:36:49;;;;;;;6.32;3.60;;;;;;;21.64;56.89;101822.00;5286190;28;20037;-81
2022/07/23 10:39:30;;;;;;;3.83;3.20;;;;;;;21.81;57.09;101835.19;5296851;28;20113;-81
2022/07/23 10:42:10;;;;;;;7.47;3.78;;;;;;;21.64;57.29;101836.91;5294718;28;20074;-80
2022/07/23 10:44:47;;;;;;;6.90;3.55;;;;;;;21.68;57.29;101829.44;5303505;28;20035;-80
2022/07/23 10:50:31;;;;;;;4.50;2.83;;;;;;;21.89;55.74;101831.47;5285137;28;20545;-78
2022/07/23 10:53:11;;;;;;;3.88;3.17;;;;;;;21.71;55.21;101825.94;5282530;28;20037;-76
2022/07/23 10:55:46;;;;;;;3.88;3.20;;;;;;;21.95;54.66;101823.59;5284687;28;20077;-77
2022/07/23 10:58:20;;;;;;;14.25;8.57;;;;;;;22.04;55.04;101825.19;5288003;28;20083;-83
2022/07/23 11:00:51;;;;;;;10.95;9.05;;;;;;;22.07;55.18;101830.16;5273031;28;20486;-84
2022/07/23 11:03:38;;;;;;;5.63;5.13;;;;;;;22.17;54.44;101826.09;5303889;28;20147;-86
2022/07/23 11:06:10;;;;;;;6.40;2.25;;;;;;;22.01;51.23;101825.91;5285339;28;20028;-81
2022/07/23 11:08:41;;;;;;;4.65;3.38;;;;;;;21.96;52.38;101834.56;5290928;28;20126;-78
2022/07/23 11:11:12;;;;;;;49.67;44.95;;;;;;;22.14;53.05;101821.97;5321085;28;20033;-77
2022/07/23 11:13:45;;;;;;;4.10;3.70;;;;;;;22.28;53.28;101827.34;5300278;28;20028;-77
2022/07/23 11:16:21;;;;;;;7.93;3.80;;;;;;;22.22;52.42;101834.38;5293279;28;20494;-77
2022/07/23 11:18:58;;;;;;;4.53;3.13;;;;;;;22.22;53.34;101819.44;5287349;28;20439;-76
2022/07/23 11:21:30;;;;;;;4.47;3.45;;;;;;;22.36;55.08;101825.59;5315147;28;20463;-83
2022/07/23 11:24:15;;;;;;;3.53;2.63;;;;;;;22.41;54.08;101816.91;5306565;28;20069;-81
2022/07/23 11:26:55;;;;;;;5.07;3.15;;;;;;;22.67;54.10;101819.47;5284498;28;20044;-81
2022/07/23 11:29:27;;;;;;;9.18;8.27;;;;;;;22.65;53.31;101816.19;5294456;28;20471;-81
2022/07/23 11:32:19;;;;;;;5.38;2.85;;;;;;;22.74;52.55;101810.44;5301559;28;20400;-81
2022/07/23 11:34:53;;;;;;;3.80;2.70;;;;;;;22.87;52.11;101814.94;5305028;28;20085;-81
2022/07/23 11:37:35;;;;;;;5.15;2.50;;;;;;;22.68;51.94;101823.97;5297858;28;20063;-81
2022/07/23 11:40:09;;;;;;;5.38;3.53;;;;;;;22.43;52.67;101823.06;5316978;28;20027;-77
2022/07/23 11:42:56;;;;;;;4.73;2.67;;;;;;;22.48;54.60;101810.72;5320992;28;20020;-78
2022/07/23 11:45:36;;;;;;;3.92;2.60;;;;;;;22.41;52.74;101808.44;5304134;28;20286;-76
2022/07/23 11:48:09;;;;;;;4.95;2.90;;;;;;;22.55;52.79;101820.28;5303780;28;20047;-77
2022/07/23 11:50:40;;;;;;;3.83;3.42;;;;;;;22.60;52.68;101815.56;5284253;28;20021;-77
2022/07/23 11:53:12;;;;;;;6.97;2.60;;;;;;;22.75;51.93;101817.72;5299807;28;20383;-78
2022/07/23 11:55:44;;;;;;;8.20;7.28;;;;;;;22.94;47.21;101825.69;5303907;28;20028;-73
2022/07/23 11:58:15;;;;;;;39.40;7.68;;;;;;;22.98;48.47;101816.19;5303933;28;20056;-79
2022/07/23 12:00:47;;;;;;;9.70;6.00;;;;;;;23.21;50.37;101818.53;5302141;28;20055;-77
2022/07/23 12:03:18;;;;;;;4.03;2.25;;;;;;;23.27;47.15;101819.97;5295468;28;20482;-81
2022/07/23 12:05:56;;;;;;;2.22;1.80;;;;;;;23.34;45.49;101820.22;5303551;28;20024;-79
2022/07/23 12:08:27;;;;;;;3.30;2.20;;;;;;;23.42;48.28;101816.44;5297048;28;20028;-77
2022/07/23 12:10:58;;;;;;;2.80;2.20;;;;;;;23.38;46.90;101812.66;5292209;28;20029;-74
2022/07/23 12:13:30;;;;;;;4.00;2.05;;;;;;;23.57;46.81;101814.06;5289007;28;20024;-75
2022/07/23 12:16:01;;;;;;;3.72;2.33;;;;;;;23.76;47.79;101807.81;5301969;28;20027;-75
2022/07/23 12:18:33;;;;;;;4.82;4.43;;;;;;;23.63;48.28;101815.47;5302793;28;20038;-76
2022/07/23 12:21:06;;;;;;;10.32;6.47;;;;;;;23.66;45.47;101815.59;5303369;28;20111;-77
2022/07/23 12:23:38;;;;;;;2.90;2.60;;;;;;;23.81;45.54;101810.41;5292793;28;20021;-77
2022/07/23 12:26:11;;;;;;;2.95;2.53;;;;;;;24.00;45.49;101809.75;5290881;28;20051;-76
2022/07/23 12:28:52;;;;;;;2.53;1.90;;;;;;;23.97;45.63;101801.97;5302009;28;20043;-76
2022/07/23 12:31:29;;;;;;;2.65;2.33;;;;;;;23.89;45.17;101806.59;5303273;28;20036;-78
2022/07/23 12:34:14;;;;;;;3.63;2.22;;;;;;;24.04;45.27;101796.53;5285237;28;20480;-80
2022/07/23 12:36:45;;;;;;;2.38;2.03;;;;;;;24.01;44.98;101794.44;5301857;28;20051;-77
2022/07/23 12:39:32;;;;;;;2.58;1.90;;;;;;;24.09;46.85;101791.44;5301907;28;20086;-83
2022/07/23 12:42:11;;;;;;;3.42;1.98;;;;;;;24.42;46.51;101781.03;5282525;28;20116;-79
2022/07/23 12:45:06;;;;;;;4.32;2.30;;;;;;;24.36;46.31;101782.47;5292527;28;20124;-79
2022/07/23 12:47:58;;;;;;;2.00;1.87;;;;;;;24.43;45.22;101780.66;5298382;28;20043;-77
2022/07/23 12:50:35;;;;;;;2.60;1.67;;;;;;;24.52;44.67;101784.19;5306827;28;20282;-81
2022/07/23 12:53:18;;;;;;;3.22;2.30;;;;;;;24.60;44.23;101790.06;5307237;28;20024;-83
2022/07/23 12:55:58;;;;;;;4.88;2.22;;;;;;;24.41;43.71;101790.72;5307761;28;20028;-79
2022/07/23 12:58:47;;;;;;;2.38;2.15;;;;;;;24.57;44.55;101793.59;5284266;28;20075;-79
2022/07/23 13:01:22;;;;;;;3.40;2.55;;;;;;;24.55;44.08;101791.16;5297193;28;20365;-80
2022/07/23 13:04:09;;;;;;;4.68;2.33;;;;;;;24.73;45.14;101791.63;5303322;28;20044;-79
2022/07/23 13:06:58;;;;;;;3.20;2.10;;;;;;;24.67;43.54;101791.09;5304545;28;20032;-82
2022/07/23 13:09:31;;;;;;;3.22;2.22;;;;;;;24.80;43.98;101790.97;5303046;28;20110;-78
2022/07/23 13:12:03;;;;;;;4.47;2.13;;;;;;;24.78;43.75;101793.38;5300353;28;20032;-77
2022/07/23 13:14:34;;;;;;;3.45;2.75;;;;;;;24.72;44.38;101792.81;5285251;28;20047;-73
2022/07/23 13:17:06;;;;;;;4.53;2.13;;;;;;;24.95;44.38;101795.84;5281277;28;20111;-71
2022/07/23 13:19:37;;;;;;;4.53;2.22;;;;;;;24.85;44.24;101794.41;5291248;28;20024;-71
2022/07/23 13:22:08;;;;;;;2.65;1.95;;;;;;;25.08;44.13;101783.25;5317214;28;20467;-72
2022/07/23 13:24:39;;;;;;;4.57;2.55;;;;;;;25.07;44.46;101787.25;5286940;28;20032;-70
2022/07/23 13:27:12;;;;;;;103.03;93.10;;;;;;;25.23;44.03;101783.59;5302192;28;20020;-73
2022/07/23 13:29:43;;;;;;;7.55;4.82;;;;;;;25.19;44.10;101777.84;5320865;28;20388;-73
2022/07/23 13:32:14;;;;;;;3.08;2.78;;;;;;;25.27;43.82;101778.84;5292184;28;20107;-73
2022/07/23 13:34:46;;;;;;;2.53;2.30;;;;;;;25.39;44.11;101781.59;5305675;28;20030;-72
2022/07/23 13:37:17;;;;;;;3.38;3.03;;;;;;;25.37;43.00;101781.13;5306128;28;20020;-71
2022/07/23 13:39:48;;;;;;;3.38;3.08;;;;;;;25.65;43.29;101783.00;5303900;28;20028;-73
2022/07/23 13:42:20;;;;;;;2.60;2.28;;;;;;;25.62;43.02;101770.38;5305316;28;20030;-74
2022/07/23 13:44:51;;;;;;;5.38;4.88;;;;;;;26.00;43.68;101763.94;5293018;28;20448;-74
2022/07/23 13:47:22;;;;;;;4.18;3.38;;;;;;;25.69;42.30;101759.13;5284997;28;20077;-73
2022/07/23 13:49:54;;;;;;;13.38;12.07;;;;;;;25.74;42.42;101760.88;5285886;28;20075;-73
2022/07/23 13:52:25;;;;;;;18.70;16.85;;;;;;;25.99;42.36;101765.09;5300902;28;20021;-73
2022/07/23 13:54:56;;;;;;;14.18;12.70;;;;;;;26.11;41.76;101758.47;5285081;28;20137;-72
2022/07/23 13:57:27;;;;;;;4.63;3.67;;;;;;;26.14;41.45;101757.72;5283433;28;20123;-73
2022/07/23 13:59:59;;;;;;;2.38;2.17;;;;;;;26.13;40.35;101758.06;5284633;28;20352;-73
2022/07/23 14:02:30;;;;;;;2.58;2.38;;;;;;;26.11;40.33;101758.47;5283826;28;20451;-75
2022/07/23 14:05:07;;;;;;;3.20;2.80;;;;;;;26.21;40.50;101762.72;5290972;28;20033;-74
2022/07/23 14:07:39;;;;;;;2.75;2.50;;;;;;;26.30;41.26;101763.31;5289335;28;20438;-73
2022/07/23 14:10:11;;;;;;;4.97;3.00;;;;;;;26.07;40.47;101768.09;5305475;28;20387;-72
2022/07/23 14:12:42;;;;;;;2.65;2.42;;;;;;;26.55;41.52;101765.84;5300268;28;20116;-72
2022/07/23 14:15:14;;;;;;;2.90;2.60;;;;;;;26.01;39.90;101753.38;5304728;28;20053;-74
2022/07/23 14:17:45;;;;;;;2.30;2.10;;;;;;;26.14;40.35;101756.88;5304886;28;20016;-73
2022/07/23 14:20:17;;;;;;;6.15;2.88;;;;;;;26.35;40.40;101762.19;5301578;28;20017;-73
2022/07/23 14:22:49;;;;;;;5.03;2.78;;;;;;;26.12;40.75;101765.78;5284617;28;20440;-74
2022/07/23 14:25:20;;;;;;;8.38;5.45;;;;;;;26.07;40.68;101762.41;5303216;28;20012;-72
2022/07/23 14:27:52;;;;;;;3.10;2.80;;;;;;;26.15;40.92;101767.06;5303636;28;20464;-73
2022/07/23 14:30:24;;;;;;;5.15;2.80;;;;;;;26.49;40.77;101767.34;5305107;28;20036;-74
2022/07/23 14:32:55;;;;;;;3.35;2.58;;;;;;;26.39;40.09;101763.09;5304194;28;20020;-72
2022/07/23 14:35:26;;;;;;;9.18;7.35;;;;;;;26.55;40.69;101777.22;5288123;28;20089;-73
2022/07/23 14:37:58;;;;;;;3.83;2.50;;;;;;;26.27;40.70;101768.94;5283177;28;20028;-74
2022/07/23 14:40:29;;;;;;;4.95;3.63;;;;;;;25.94;40.92;101771.09;5300666;28;20023;-73
2022/07/23 14:43:01;;;;;;;3.80;3.50;;;;;;;26.05;42.19;101770.50;5300821;28;20043;-72
2022/07/23 14:45:32;;;;;;;4.32;3.15;;;;;;;25.85;42.60;101766.81;5304307;28;20092;-74
2022/07/23 14:48:03;;;;;;;10.40;9.30;;;;;;;25.80;42.00;101765.91;5304545;28;20024;-76
2022/07/23 14:50:34;;;;;;;4.93;4.47;;;;;;;25.65;42.38;101768.78;5305123;28;20475;-80
2022/07/23 14:53:06;;;;;;;2.90;2.35;;;;;;;25.62;42.88;101763.84;5293154;28;20099;-80
2022/07/23 14:55:37;;;;;;;3.58;2.70;;;;;;;25.60;42.90;101772.75;5286349;28;20020;-82
2022/07/23 14:58:09;;;;;;;3.95;2.55;;;;;;;25.50;42.37;101761.97;5291487;28;20049;-75
2022/07/23 15:00:40;;;;;;;3.00;2.70;;;;;;;25.44;42.96;101761.44;5303467;28;20071;-78
2022/07/23 15:03:15;;;;;;;5.30;3.03;;;;;;;25.38;42.95;101763.72;5302767;28;20463;-75
2022/07/23 15:05:47;;;;;;;3.20;2.70;;;;;;;25.54;42.84;101758.03;5303820;28;20028;-75
2022/07/23 15:08:18;;;;;;;2.78;2.50;;;;;;;25.46;42.90;101761.03;5303585;28;20020;-73
2022/07/23 15:10:50;;;;;;;3.42;2.72;;;;;;;25.43;42.53;101762.59;5291867;28;20027;-73
2022/07/23 15:13:21;;;;;;;2.92;2.72;;;;;;;25.34;42.81;101753.47;5294955;28;20025;-73
2022/07/23 15:15:55;;;;;;;4.30;3.00;;;;;;;25.20;42.26;101755.97;5304548;28;20395;-84
2022/07/23 15:18:26;;;;;;;3.40;2.47;;;;;;;25.38;42.86;101760.06;5305942;28;20032;-84
2022/07/23 15:20:57;;;;;;;6.47;3.55;;;;;;;25.37;43.01;101758.41;5304426;28;20364;-84
2022/07/23 15:23:29;;;;;;;3.20;2.90;;;;;;;25.49;43.24;101749.78;5298210;28;20384;-84
2022/07/23 15:26:00;;;;;;;3.30;2.92;;;;;;;25.66;43.16;101744.88;5284963;28;20079;-80
2022/07/23 15:28:31;;;;;;;12.00;10.85;;;;;;;25.73;42.76;101754.38;5284457;28;20013;-86
2022/07/23 15:31:03;;;;;;;4.68;3.88;;;;;;;25.50;42.94;101751.41;5298779;28;20030;-83
2022/07/23 15:33:35;;;;;;;5.13;2.60;;;;;;;25.48;43.02;101747.31;5284761;28;20024;-84
2022/07/23 15:36:07;;;;;;;9.48;3.50;;;;;;;25.57;42.82;101737.38;5304774;28;20027;-86
2022/07/23 15:38:38;;;;;;;3.65;2.83;;;;;;;25.66;43.00;101742.03;5304650;28;20020;-85
2022/07/23 15:41:10;;;;;;;3.30;2.95;;;;;;;25.74;42.83;101738.97;5286170;28;20021;-87
2022/07/23 15:43:41;;;;;;;14.48;13.10;;;;;;;25.84;43.13;101737.56;5288761;28;20055;-88
2022/07/23 15:46:13;;;;;;;4.55;4.00;;;;;;;25.82;42.97;101737.09;5288458;28;20053;-81
2022/07/23 15:48:44;;;;;;;4.95;4.53;;;;;;;25.92;43.18;101742.22;5287728;28;20039;-83
2022/07/23 15:51:16;;;;;;;3.28;2.95;;;;;;;25.81;42.89;101738.31;5286903;28;20017;-85
2022/07/23 15:53:47;;;;;;;6.90;5.97;;;;;;;25.80;42.76;101733.84;5293513;28;20032;-85
2022/07/23 15:56:19;;;;;;;5.90;3.28;;;;;;;25.87;43.11;101728.31;5304789;28;20048;-82
2022/07/23 15:58:50;;;;;;;4.80;3.47;;;;;;;25.87;42.83;101731.16;5298044;28;20047;-82
2022/07/23 16:01:22;;;;;;;3.10;2.75;;;;;;;25.98;42.94;101732.22;5281701;28;20039;-83
2022/07/23 16:03:53;;;;;;;4.30;3.03;;;;;;;26.11;42.59;101732.88;5286906;28;20028;-82
2022/07/23 16:06:25;;;;;;;5.68;2.90;;;;;;;26.18;42.79;101733.03;5283607;28;20043;-86
2022/07/23 16:08:56;;;;;;;4.78;3.30;;;;;;;26.00;42.08;101726.97;5297805;28;20085;-84
2022/07/23 16:11:28;;;;;;;3.55;2.90;;;;;;;26.07;42.71;101728.31;5303769;28;20024;-86
2022/07/23 16:14:00;;;;;;;2.30;2.10;;;;;;;26.17;41.65;101725.69;5294815;28;20082;-81
2022/07/23 16:16:31;;;;;;;3.22;2.92;;;;;;;25.95;41.53;101718.75;5287078;28;20482;-81
2022/07/23 16:19:02;;;;;;;3.75;3.35;;;;;;;26.11;41.82;101717.84;5303959;28;20433;-82
2022/07/23 16:21:34;;;;;;;4.03;3.63;;;;;;;25.99;40.95;101718.81;5298208;28;20020;-80
2022/07/23 16:24:06;;;;;;;4.20;3.20;;;;;;;26.14;41.09;101717.09;5295832;28;20036;-81
2022/07/23 16:26:38;;;;;;;4.28;2.95;;;;;;;26.26;40.88;101711.25;5307921;28;20024;-82
2022/07/23 16:29:09;;;;;;;4.45;3.67;;;;;;;26.14;40.65;101717.91;5306901;28;20032;-81
2022/07/23 16:31:40;;;;;;;5.05;3.80;;;;;;;26.24;41.09;101710.78;5286033;28;20070;-81
2022/07/23 16:34:12;;;;;;;3.92;3.63;;;;;;;26.28;40.93;101719.38;5295423;28;20489;-77
2022/07/23 16:36:43;;;;;;;7.97;4.43;;;;;;;26.15;40.68;101707.34;5296132;28;20019;-79
2022/07/23 16:39:15;;;;;;;3.70;2.92;;;;;;;26.25;40.96;101712.44;5297091;28;20434;-78
2022/07/23 16:41:46;;;;;;;3.33;2.88;;;;;;;26.23;40.97;101712.00;5292058;28;20028;-78
2022/07/23 16:44:17;;;;;;;5.22;3.28;;;;;;;26.26;40.76;101708.41;5297403;28;20537;-78
2022/07/23 16:46:48;;;;;;;3.33;3.03;;;;;;;26.25;40.39;101706.75;5307615;28;20067;-78
2022/07/23 16:49:20;;;;;;;4.50;3.58;;;;;;;26.16;40.39;101697.66;5307422;28;20016;-76
2022/07/23 16:51:51;;;;;;;4.30;3.03;;;;;;;26.35;40.77;101700.44;5306835;28;20077;-77
2022/07/23 16:54:23;;;;;;;3.70;3.13;;;;;;;26.59;40.91;101702.13;5289039;28;20016;-75
2022/07/23 16:56:54;;;;;;;4.50;3.60;;;;;;;26.60;40.78;101702.97;5287235;28;20086;-78
2022/07/23 16:59:25;;;;;;;4.13;3.72;;;;;;;26.50;40.29;101695.84;5285689;28;20036;-77
2022/07/23 17:01:56;;;;;;;3.88;3.20;;;;;;;26.53;39.86;101699.97;5286947;28;20368;-77
2022/07/23 17:04:28;;;;;;;9.82;6.00;;;;;;;26.71;39.84;101706.78;5286768;28;20024;-78
2022/07/23 17:07:02;;;;;;;4.53;3.33;;;;;;;26.81;39.26;101700.47;5285390;28;20039;-78
2022/07/23 17:09:34;;;;;;;3.45;3.13;;;;;;;26.79;39.24;101705.75;5285819;28;20063;-78
2022/07/23 17:12:06;;;;;;;4.38;3.78;;;;;;;26.95;39.17;101704.78;5286495;28;20032;-77
2022/07/23 17:14:37;;;;;;;3.58;3.28;;;;;;;26.99;39.52;101706.47;5293876;28;20024;-77
2022/07/23 17:17:11;;;;;;;3.45;3.03;;;;;;;26.96;39.56;101712.09;5307385;28;20032;-77
2022/07/23 17:19:42;;;;;;;4.43;3.83;;;;;;;26.98;39.45;101701.16;5292860;28;20035;-78
2022/07/23 17:22:14;;;;;;;3.47;3.17;;;;;;;27.04;38.93;101708.16;5286237;28;20024;-78
2022/07/23 17:24:45;;;;;;;4.70;3.83;;;;;;;27.01;39.07;101708.94;5303042;28;20028;-77
2022/07/23 17:27:16;;;;;;;4.18;3.70;;;;;;;26.70;39.15;101715.72;5306537;28;20024;-77
2022/07/23 17:29:48;;;;;;;4.78;3.63;;;;;;;26.70;39.24;101708.00;5305470;28;20032;-77
